Kanayamaru — JG5114 — position and weather

sailwx.info

Track history (hours):
 
Tides and Currents Weather Stations Pressure Air Temp Water Temp Dewpoint Dewpoint Depression Visibility Wind Speed Wind Dir Waves Ship Positions

Kanayamaru

Last reported at 2018-Feb-20 11:00 UTC. Time now 2018-Feb-20 11:30 UTC.
Position N 35°10' E 139°49'.

Length 77 m; draft 3.2 m.

Type: Passenger vessel. MMSI: 431000238.

Date/timePositionNaut miles runAvg speedWind from/ knotsBaromVisibWave heightAir tempDewpointWater temp
2018-Feb-20 11:00N 35°10' E 139°49'4 8.1
2018-Feb-20 10:30N 35°12' E 139°45'2 3.8
2018-Feb-20 10:00N 35°13' E 139°43'510.6
2018-Feb-20 09:30N 35°11' E 139°48'0 0.4
2018-Feb-20 09:00N 35°10' E 139°49'610.8
2018-Feb-20 08:30N 35°13' E 139°43'1 1.1
2018-Feb-20 08:00N 35°13' E 139°44'510.8
2018-Feb-20 07:30N 35°10' E 139°49'0 0.1
2018-Feb-20 07:00N 35°10' E 139°49'611.6
2018-Feb-20 06:31N 35°13' E 139°43'0 0.5
2018-Feb-20 06:00N 35°13' E 139°43'0 0.0
2018-Feb-20 05:30N 35°13' E 139°43'3 5.3
2018-Feb-20 05:00N 35°12' E 139°46'3 6.6
2018-Feb-20 04:30N 35°10' E 139°49'0 0.0
2018-Feb-20 04:00N 35°10' E 139°49'3 6.0
2018-Feb-20 03:30N 35°12' E 139°46'3 5.8
2018-Feb-20 03:00N 35°13' E 139°43'0 0.0
2018-Feb-20 02:30N 35°13' E 139°43'0 0.3
2018-Feb-20 02:00N 35°13' E 139°43'510.9
2018-Feb-20 01:30N 35°10' E 139°49'0 0.7
2018-Feb-20 01:00N 35°10' E 139°49'611.4
2018-Feb-20 00:30N 35°13' E 139°43'0 0.3
2018-Feb-20 00:00N 35°13' E 139°43'4 7.2
2018-Feb-19 23:30N 35°12' E 139°47'2 4.7
2018-Feb-19 23:00N 35°10' E 139°49'5 9.4
2018-Feb-19 22:30N 35°13' E 139°44'1 2.4
2018-Feb-19 22:00N 35°13' E 139°43'4 8.8
2018-Feb-19 21:30N 35°11' E 139°48'1 2.9
2018-Feb-19 21:00N 35°10' E 139°49'0 0.0
2018-Feb-19 10:57N 35°10' E 139°49'4 8.4
2018-Feb-19 10:30N 35°13' E 139°45'2 4.3
2018-Feb-19 10:00N 35°13' E 139°43'510.8
2018-Feb-19 09:30N 35°10' E 139°48'1 1.1
2018-Feb-19 09:00N 35°10' E 139°49'611.2
2018-Feb-19 08:30N 35°13' E 139°43'0 0.7
2018-Feb-19 08:00N 35°13' E 139°44'510.8
2018-Feb-19 07:30N 35°10' E 139°49'0 0.1
2018-Feb-19 07:00N 35°10' E 139°49'611.0
2018-Feb-19 06:29N 35°13' E 139°43'0 0.3
2018-Feb-19 06:01N 35°13' E 139°43'0 0.0
2018-Feb-19 05:30N 35°13' E 139°43'3 5.2
2018-Feb-19 05:00N 35°12' E 139°46'3 6.8
2018-Feb-19 04:30N 35°10' E 139°49'4 7.5
2018-Feb-19 04:00N 35°12' E 139°45'2 3.0
2018-Feb-19 03:30N 35°13' E 139°44'510.4
2018-Feb-19 03:00N 35°10' E 139°49'0 0.0
2018-Feb-19 02:30N 35°10' E 139°49'0 0.0
2018-Feb-19 02:00N 35°10' E 139°49'5 9.7
2018-Feb-19 01:30N 35°13' E 139°44'1 2.1
2018-Feb-19 01:00N 35°13' E 139°43'5 9.0
2018-Feb-19 00:30N 35°11' E 139°48'1 2.7
2018-Feb-19 00:00N 35°10' E 139°49'5 9.6
2018-Feb-18 23:30N 35°13' E 139°44'1 2.2
2018-Feb-18 23:00N 35°13' E 139°43'4 7.1
2018-Feb-18 22:30N 35°12' E 139°47'2 4.7
2018-Feb-18 22:00N 35°10' E 139°49'5 9.8
2018-Feb-18 21:31N 35°13' E 139°44'1 2.1
2018-Feb-18 21:01N 35°13' E 139°43'0 0.0
2018-Feb-18 11:09N 35°13' E 139°43'1 5.2
2018-Feb-18 11:00N 35°13' E 139°44'510.2
2018-Feb-18 10:30N 35°10' E 139°49'0 0.0
2018-Feb-18 10:01N 35°10' E 139°49'4 7.9
2018-Feb-18 09:30N 35°13' E 139°45'2 4.0
2018-Feb-18 09:00N 35°13' E 139°43'4 8.8
2018-Feb-18 08:31N 35°11' E 139°47'2 3.0
2018-Feb-18 08:01N 35°10' E 139°49'5 9.6
2018-Feb-18 07:31N 35°13' E 139°44'1 2.1
2018-Feb-18 07:00N 35°13' E 139°43'4 9.1
2018-Feb-18 06:30N 35°11' E 139°48'1 2.9
2018-Feb-18 06:00N 35°10' E 139°49'510.0
2018-Feb-18 05:30N 35°13' E 139°44'1 1.5
2018-Feb-18 05:00N 35°13' E 139°43'4 7.3
2018-Feb-18 04:31N 35°12' E 139°47'2 4.8
2018-Feb-18 04:00N 35°10' E 139°49'4 8.0
2018-Feb-18 03:30N 35°12' E 139°45'2 3.6
2018-Feb-18 02:59N 35°13' E 139°43'4 9.1
2018-Feb-18 02:30N 35°11' E 139°48'1 2.9
2018-Feb-18 02:00N 35°10' E 139°49'510.1
2018-Feb-18 01:30N 35°13' E 139°44'1 1.7
2018-Feb-18 01:00N 35°13' E 139°43'5 9.2
2018-Feb-18 00:30N 35°11' E 139°48'1 2.6
2018-Feb-18 00:00N 35°10' E 139°49'5 9.6
2018-Feb-17 23:31N 35°13' E 139°44'1 2.2
2018-Feb-17 23:00N 35°13' E 139°43'4 7.2
2018-Feb-17 22:30N 35°12' E 139°47'2 4.6
2018-Feb-17 22:01N 35°10' E 139°49'5 9.8
2018-Feb-17 21:31N 35°13' E 139°44'1 2.0
2018-Feb-17 21:01N 35°13' E 139°43'0 0.0
2018-Feb-17 11:11N 35°13' E 139°43'1 5.6
2018-Feb-17 11:00N 35°13' E 139°44'5 9.9
2018-Feb-17 10:31N 35°10' E 139°49'0 0.0
2018-Feb-17 10:00N 35°10' E 139°49'4 7.8
2018-Feb-17 09:30N 35°13' E 139°45'2 4.1
2018-Feb-17 09:00N 35°13' E 139°43'4 8.9
2018-Feb-17 08:30N 35°11' E 139°48'1 2.8
2018-Feb-17 08:00N 35°10' E 139°49'510.0
2018-Feb-17 07:30N 35°13' E 139°44'1 1.8
2018-Feb-17 06:59N 35°13' E 139°43'5 9.4
2018-Feb-17 06:30N 35°11' E 139°48'1 2.6
2018-Feb-17 06:00N 35°10' E 139°49'5 9.8
2018-Feb-17 05:30N 35°13' E 139°44'1 2.2
2018-Feb-17 05:00N 35°13' E 139°43'3 6.9
2018-Feb-17 04:30N 35°12' E 139°47'2 4.9
2018-Feb-17 04:01N 35°10' E 139°49'4 7.7
2018-Feb-17 03:30N 35°12' E 139°45'2 4.0
2018-Feb-17 03:00N 35°13' E 139°43'4 8.7
2018-Feb-17 02:31N 35°11' E 139°48'2 3.0
2018-Feb-17 01:59N 35°10' E 139°49'510.4
2018-Feb-17 01:30N 35°13' E 139°44'1 1.7
2018-Feb-17 01:00N 35°13' E 139°43'5 9.0
2018-Feb-17 00:30N 35°11' E 139°48'1 2.6
2018-Feb-17 00:00N 35°10' E 139°49'510.6
2018-Feb-16 23:30N 35°13' E 139°44'1 1.1
2018-Feb-16 23:00N 35°13' E 139°43'4 7.1
2018-Feb-16 22:30N 35°12' E 139°47'2 4.6
2018-Feb-16 22:00N 35°10' E 139°49'5 9.6
2018-Feb-16 21:30N 35°13' E 139°44'1 2.1
2018-Feb-16 21:00N 35°13' E 139°43'0 0.0
2018-Feb-16 11:14N 35°13' E 139°43'1 3.1
2018-Feb-16 11:00N 35°13' E 139°44'510.5
2018-Feb-16 10:30N 35°10' E 139°49'0 0.0
2018-Feb-16 10:00N 35°10' E 139°49'4 7.6
2018-Feb-16 09:30N 35°12' E 139°45'2 4.1
2018-Feb-16 09:00N 35°13' E 139°43'4 8.7
2018-Feb-16 08:30N 35°11' E 139°48'1 2.9
2018-Feb-16 08:00N 35°10' E 139°49'5 9.4
2018-Feb-16 07:31N 35°13' E 139°44'1 2.3
2018-Feb-16 07:00N 35°13' E 139°43'4 9.0
2018-Feb-16 06:30N 35°11' E 139°47'1 2.9
2018-Feb-16 06:00N 35°10' E 139°49'0 0.0
2018-Feb-16 05:30N 35°10' E 139°49'510.0
2018-Feb-16 05:00N 35°13' E 139°44'1 1.7
2018-Feb-16 04:28N 35°13' E 139°43'0 0.0
2018-Feb-16 04:00N 35°13' E 139°43'1 1.6
2018-Feb-16 03:30N 35°13' E 139°44'510.2
2018-Feb-16 02:59N 35°10' E 139°49'0 0.0
2018-Feb-16 02:29N 35°10' E 139°49'0 0.0
2018-Feb-16 02:00N 35°10' E 139°49'5 9.9
2018-Feb-16 01:30N 35°13' E 139°44'1 1.9
2018-Feb-16 01:00N 35°13' E 139°43'5 8.9
2018-Feb-16 00:30N 35°11' E 139°48'1 2.8
2018-Feb-16 00:00N 35°10' E 139°49'5 9.9
2018-Feb-15 23:30N 35°13' E 139°44'1 1.9
2018-Feb-15 23:00N 35°13' E 139°43'4 7.0
2018-Feb-15 22:30N 35°12' E 139°47'2 4.8
2018-Feb-15 22:00N 35°10' E 139°49'510.0
2018-Feb-15 21:30N 35°13' E 139°44'1 1.8
2018-Feb-15 21:00N 35°13' E 139°43'0 0.0
2018-Feb-15 11:13N 35°13' E 139°43'1 4.7
2018-Feb-15 11:00N 35°13' E 139°44'5 9.9
2018-Feb-15 10:30N 35°10' E 139°49'0 0.0
2018-Feb-15 10:00N 35°10' E 139°49'4 7.8
2018-Feb-15 09:30N 35°12' E 139°45'2 4.0
2018-Feb-15 09:00N 35°13' E 139°43'4 8.8
2018-Feb-15 08:30N 35°11' E 139°48'1 2.8
2018-Feb-15 08:00N 35°10' E 139°49'5 9.9
2018-Feb-15 07:30N 35°13' E 139°44'1 1.8
2018-Feb-15 07:00N 35°13' E 139°43'5 9.3
2018-Feb-15 06:30N 35°11' E 139°48'1 2.4
2018-Feb-15 06:00N 35°10' E 139°49'0 0.0
2018-Feb-15 05:30N 35°10' E 139°49'510.3
2018-Feb-15 05:00N 35°13' E 139°44'1 1.6
2018-Feb-15 04:30N 35°13' E 139°43'0 0.0
2018-Feb-15 04:00N 35°13' E 139°43'1 1.6
2018-Feb-15 03:30N 35°13' E 139°44'510.4
2018-Feb-15 03:00N 35°10' E 139°49'0 0.0
2018-Feb-15 02:30N 35°10' E 139°49'0 0.0
2018-Feb-15 02:00N 35°10' E 139°49'5 9.7
2018-Feb-15 01:30N 35°13' E 139°44'1 2.0
2018-Feb-15 01:00N 35°13' E 139°43'5 9.2
2018-Feb-15 00:30N 35°11' E 139°48'1 2.5
2018-Feb-15 00:00N 35°10' E 139°49'5 9.8
2018-Feb-14 23:30N 35°13' E 139°44'1 2.3
2018-Feb-14 23:00N 35°13' E 139°43'0 0.0
2018-Feb-14 11:11N 35°13' E 139°43'1 5.6
2018-Feb-14 11:00N 35°13' E 139°44'5 9.8
2018-Feb-14 10:30N 35°10' E 139°49'0 0.0
2018-Feb-14 10:00N 35°10' E 139°49'4 7.8
2018-Feb-14 09:30N 35°12' E 139°45'2 4.1
2018-Feb-14 09:00N 35°13' E 139°43'5 9.2
2018-Feb-14 08:30N 35°11' E 139°48'1 2.7
2018-Feb-14 08:00N 35°10' E 139°49'5 9.6
2018-Feb-14 07:30N 35°13' E 139°44'1 2.2
2018-Feb-14 07:00N 35°13' E 139°43'5 9.3
2018-Feb-14 06:30N 35°11' E 139°48'1 2.5
2018-Feb-14 06:00N 35°10' E 139°49'0 0.0
2018-Feb-14 05:30N 35°10' E 139°49'5 9.8
2018-Feb-14 05:00N 35°13' E 139°44'1 2.2
2018-Feb-14 04:29N 35°13' E 139°43'0 0.0
2018-Feb-14 04:00N 35°13' E 139°43'1 1.5
2018-Feb-14 03:30N 35°13' E 139°44'510.5
2018-Feb-14 03:00N 35°10' E 139°49'0 0.0
2018-Feb-14 02:30N 35°10' E 139°49'0 0.0
2018-Feb-14 02:00N 35°10' E 139°49'5 9.8
2018-Feb-14 01:30N 35°13' E 139°44'1 2.1
2018-Feb-14 01:00N 35°13' E 139°43'5 9.0
2018-Feb-14 00:30N 35°11' E 139°48'1 2.8
2018-Feb-14 00:00N 35°10' E 139°49'5 9.6
2018-Feb-13 23:30N 35°13' E 139°44'1 2.2
2018-Feb-13 23:00N 35°13' E 139°43'3 6.9
2018-Feb-13 22:30N 35°12' E 139°47'2 4.8
2018-Feb-13 22:00N 35°10' E 139°49'510.2
2018-Feb-13 21:30N 35°13' E 139°44'1 1.6
2018-Feb-13 21:00N 35°13' E 139°43'0 0.0
2018-Feb-13 11:09N 35°13' E 139°43'1 5.3
2018-Feb-13 11:00N 35°13' E 139°44'510.2
2018-Feb-13 10:30N 35°10' E 139°49'0 0.0
2018-Feb-13 10:00N 35°10' E 139°49'4 7.5
2018-Feb-13 09:30N 35°12' E 139°45'2 4.2
2018-Feb-13 09:00N 35°13' E 139°43'4 8.9
2018-Feb-13 08:30N 35°11' E 139°48'1 2.7
2018-Feb-13 08:00N 35°10' E 139°49'510.3
2018-Feb-13 07:30N 35°13' E 139°44'1 1.6
2018-Feb-13 07:00N 35°13' E 139°43'5 9.1
2018-Feb-13 06:30N 35°11' E 139°48'1 2.7
2018-Feb-13 06:00N 35°10' E 139°49'0 0.0
2018-Feb-13 05:30N 35°10' E 139°49'5 9.8
2018-Feb-13 05:00N 35°13' E 139°44'1 2.0
2018-Feb-13 04:29N 35°13' E 139°43'0 0.0
2018-Feb-13 04:00N 35°13' E 139°43'1 1.7
2018-Feb-13 03:30N 35°13' E 139°44'510.0
2018-Feb-13 03:00N 35°10' E 139°49'0 0.0
2018-Feb-13 02:30N 35°10' E 139°49'0 0.0
2018-Feb-13 02:00N 35°10' E 139°49'5 9.7
2018-Feb-13 01:29N 35°13' E 139°44'1 1.8
2018-Feb-13 01:00N 35°13' E 139°43'4 9.2
2018-Feb-13 00:30N 35°11' E 139°48'1 2.8
2018-Feb-13 00:00N 35°10' E 139°49'510.3
2018-Feb-12 23:29N 35°13' E 139°44'1 1.2
2018-Feb-12 23:00N 35°13' E 139°43'4 7.2
2018-Feb-12 22:30N 35°11' E 139°47'2 4.5
2018-Feb-12 22:00N 35°10' E 139°49'5 9.9
2018-Feb-12 21:30N 35°13' E 139°44'1 1.9
2018-Feb-12 21:00N 35°13' E 139°43'0 0.0
2018-Feb-12 11:17N 35°13' E 139°43'1 3.6
2018-Feb-12 11:00N 35°13' E 139°44'5 9.9
2018-Feb-12 10:30N 35°10' E 139°49'0 0.0
2018-Feb-12 10:01N 35°10' E 139°49'4 7.7
2018-Feb-12 09:30N 35°12' E 139°45'2 4.1
2018-Feb-12 09:01N 35°13' E 139°43'5 9.0
2018-Feb-12 08:30N 35°11' E 139°48'1 2.8
2018-Feb-12 08:00N 35°10' E 139°49'5 9.9
2018-Feb-12 07:31N 35°13' E 139°44'1 1.9
2018-Feb-12 07:00N 35°13' E 139°43'5 9.4
2018-Feb-12 06:30N 35°11' E 139°48'1 2.4
2018-Feb-12 06:00N 35°10' E 139°49'5 9.9
2018-Feb-12 05:31N 35°13' E 139°44'1 2.2
2018-Feb-12 05:00N 35°13' E 139°43'4 7.6
2018-Feb-12 04:31N 35°11' E 139°47'2 4.2
2018-Feb-12 04:00N 35°10' E 139°49'4 8.2
2018-Feb-12 03:31N 35°12' E 139°45'2 3.6
2018-Feb-12 03:00N 35°13' E 139°43'5 9.7
2018-Feb-12 02:31N 35°11' E 139°48'1 2.1
2018-Feb-12 02:00N 35°10' E 139°49'5 9.9
2018-Feb-12 01:30N 35°13' E 139°44'1 1.9
2018-Feb-12 01:00N 35°13' E 139°43'5 9.3
2018-Feb-12 00:30N 35°11' E 139°48'1 2.3
2018-Feb-12 00:00N 35°10' E 139°49'510.1
2018-Feb-11 23:30N 35°13' E 139°44'1 1.7
2018-Feb-11 23:00N 35°13' E 139°43'4 7.4
2018-Feb-11 22:30N 35°12' E 139°47'2 4.6
2018-Feb-11 22:01N 35°10' E 139°49'5 9.5
2018-Feb-11 21:31N 35°13' E 139°44'1 2.2
2018-Feb-11 21:00N 35°13' E 139°43'0 0.0
2018-Feb-11 11:20N 35°13' E 139°43'1 3.3
2018-Feb-11 11:00N 35°13' E 139°44'5 9.7
2018-Feb-11 10:30N 35°10' E 139°49'0 0.0
2018-Feb-11 10:00N 35°10' E 139°49'4 7.8
2018-Feb-11 09:30N 35°12' E 139°45'2 3.8
2018-Feb-11 09:00N 35°13' E 139°43'5 9.4
2018-Feb-11 08:30N 35°11' E 139°48'1 2.2
2018-Feb-11 08:00N 35°10' E 139°49'5 9.2
2018-Feb-11 07:30N 35°13' E 139°44'1 2.6
2018-Feb-11 07:00N 35°13' E 139°43'5 9.7
2018-Feb-11 06:30N 35°11' E 139°48'1 2.2
2018-Feb-11 06:00N 35°10' E 139°49'510.2
2018-Feb-11 05:30N 35°13' E 139°44'1 1.5
2018-Feb-11 05:01N 35°13' E 139°43'4 7.5
2018-Feb-11 04:30N 35°12' E 139°47'2 4.3
2018-Feb-11 04:00N 35°10' E 139°49'4 8.1
2018-Feb-11 03:31N 35°12' E 139°45'2 3.7
2018-Feb-11 03:00N 35°13' E 139°43'5 9.1
2018-Feb-11 02:30N 35°11' E 139°48'1 2.6
2018-Feb-11 02:01N 35°10' E 139°49'5 9.7
2018-Feb-11 01:30N 35°13' E 139°44'1 2.0
2018-Feb-11 01:00N 35°13' E 139°43'5 9.2
2018-Feb-11 00:30N 35°11' E 139°48'1 2.8
2018-Feb-11 00:00N 35°10' E 139°49'510.0
2018-Feb-10 23:30N 35°13' E 139°44'1 1.8
2018-Feb-10 23:00N 35°13' E 139°43'3 7.0
2018-Feb-10 22:31N 35°11' E 139°46'2 4.8
2018-Feb-10 22:00N 35°10' E 139°49'5 9.5
2018-Feb-10 21:30N 35°13' E 139°44'1 2.2
2018-Feb-10 21:00N 35°13' E 139°43'0 0.0
2018-Feb-10 11:09N 35°13' E 139°43'1 4.8
2018-Feb-10 11:00N 35°13' E 139°44'  
Track history (hours):
 
Tides and Currents Weather Stations Pressure Air Temp Water Temp Dewpoint Dewpoint Depression Visibility Wind Speed Wind Dir Waves Ship Positions

Kanayamaru

Last reported at 2018-Feb-20 11:00 UTC. Time now 2018-Feb-20 11:30 UTC.
Position N 35°10' E 139°49'.

Length 77 m; draft 3.2 m.

Type: Passenger vessel. MMSI: 431000238.

Date/timePositionNaut miles runAvg speedWind from/ knotsBaromVisibWave heightAir tempDewpointWater temp
2018-Feb-20 11:00N 35°10' E 139°49'4 8.1
2018-Feb-20 10:30N 35°12' E 139°45'2 3.8
2018-Feb-20 10:00N 35°13' E 139°43'510.6
2018-Feb-20 09:30N 35°11' E 139°48'0 0.4
2018-Feb-20 09:00N 35°10' E 139°49'610.8
2018-Feb-20 08:30N 35°13' E 139°43'1 1.1
2018-Feb-20 08:00N 35°13' E 139°44'510.8
2018-Feb-20 07:30N 35°10' E 139°49'0 0.1
2018-Feb-20 07:00N 35°10' E 139°49'611.6
2018-Feb-20 06:31N 35°13' E 139°43'0 0.5
2018-Feb-20 06:00N 35°13' E 139°43'0 0.0
2018-Feb-20 05:30N 35°13' E 139°43'3 5.3
2018-Feb-20 05:00N 35°12' E 139°46'3 6.6
2018-Feb-20 04:30N 35°10' E 139°49'0 0.0
2018-Feb-20 04:00N 35°10' E 139°49'3 6.0
2018-Feb-20 03:30N 35°12' E 139°46'3 5.8
2018-Feb-20 03:00N 35°13' E 139°43'0 0.0
2018-Feb-20 02:30N 35°13' E 139°43'0 0.3
2018-Feb-20 02:00N 35°13' E 139°43'510.9
2018-Feb-20 01:30N 35°10' E 139°49'0 0.7
2018-Feb-20 01:00N 35°10' E 139°49'611.4
2018-Feb-20 00:30N 35°13' E 139°43'0 0.3
2018-Feb-20 00:00N 35°13' E 139°43'4 7.2
2018-Feb-19 23:30N 35°12' E 139°47'2 4.7
2018-Feb-19 23:00N 35°10' E 139°49'5 9.4
2018-Feb-19 22:30N 35°13' E 139°44'1 2.4
2018-Feb-19 22:00N 35°13' E 139°43'4 8.8
2018-Feb-19 21:30N 35°11' E 139°48'1 2.9
2018-Feb-19 21:00N 35°10' E 139°49'0 0.0
2018-Feb-19 10:57N 35°10' E 139°49'4 8.4
2018-Feb-19 10:30N 35°13' E 139°45'2 4.3
2018-Feb-19 10:00N 35°13' E 139°43'510.8
2018-Feb-19 09:30N 35°10' E 139°48'1 1.1
2018-Feb-19 09:00N 35°10' E 139°49'611.2
2018-Feb-19 08:30N 35°13' E 139°43'0 0.7
2018-Feb-19 08:00N 35°13' E 139°44'510.8
2018-Feb-19 07:30N 35°10' E 139°49'0 0.1
2018-Feb-19 07:00N 35°10' E 139°49'611.0
2018-Feb-19 06:29N 35°13' E 139°43'0 0.3
2018-Feb-19 06:01N 35°13' E 139°43'0 0.0
2018-Feb-19 05:30N 35°13' E 139°43'3 5.2
2018-Feb-19 05:00N 35°12' E 139°46'3 6.8
2018-Feb-19 04:30N 35°10' E 139°49'4 7.5
2018-Feb-19 04:00N 35°12' E 139°45'2 3.0
2018-Feb-19 03:30N 35°13' E 139°44'510.4
2018-Feb-19 03:00N 35°10' E 139°49'0 0.0
2018-Feb-19 02:30N 35°10' E 139°49'0 0.0
2018-Feb-19 02:00N 35°10' E 139°49'5 9.7
2018-Feb-19 01:30N 35°13' E 139°44'1 2.1
2018-Feb-19 01:00N 35°13' E 139°43'5 9.0
2018-Feb-19 00:30N 35°11' E 139°48'1 2.7
2018-Feb-19 00:00N 35°10' E 139°49'5 9.6
2018-Feb-18 23:30N 35°13' E 139°44'1 2.2
2018-Feb-18 23:00N 35°13' E 139°43'4 7.1
2018-Feb-18 22:30N 35°12' E 139°47'2 4.7
2018-Feb-18 22:00N 35°10' E 139°49'5 9.8
2018-Feb-18 21:31N 35°13' E 139°44'1 2.1
2018-Feb-18 21:01N 35°13' E 139°43'0 0.0
2018-Feb-18 11:09N 35°13' E 139°43'1 5.2
2018-Feb-18 11:00N 35°13' E 139°44'510.2
2018-Feb-18 10:30N 35°10' E 139°49'0 0.0
2018-Feb-18 10:01N 35°10' E 139°49'4 7.9
2018-Feb-18 09:30N 35°13' E 139°45'2 4.0
2018-Feb-18 09:00N 35°13' E 139°43'4 8.8
2018-Feb-18 08:31N 35°11' E 139°47'2 3.0
2018-Feb-18 08:01N 35°10' E 139°49'5 9.6
2018-Feb-18 07:31N 35°13' E 139°44'1 2.1
2018-Feb-18 07:00N 35°13' E 139°43'4 9.1
2018-Feb-18 06:30N 35°11' E 139°48'1 2.9
2018-Feb-18 06:00N 35°10' E 139°49'510.0
2018-Feb-18 05:30N 35°13' E 139°44'1 1.5
2018-Feb-18 05:00N 35°13' E 139°43'4 7.3
2018-Feb-18 04:31N 35°12' E 139°47'2 4.8
2018-Feb-18 04:00N 35°10' E 139°49'4 8.0
2018-Feb-18 03:30N 35°12' E 139°45'2 3.6
2018-Feb-18 02:59N 35°13' E 139°43'4 9.1
2018-Feb-18 02:30N 35°11' E 139°48'1 2.9
2018-Feb-18 02:00N 35°10' E 139°49'510.1
2018-Feb-18 01:30N 35°13' E 139°44'1 1.7
2018-Feb-18 01:00N 35°13' E 139°43'5 9.2
2018-Feb-18 00:30N 35°11' E 139°48'1 2.6
2018-Feb-18 00:00N 35°10' E 139°49'5 9.6
2018-Feb-17 23:31N 35°13' E 139°44'1 2.2
2018-Feb-17 23:00N 35°13' E 139°43'4 7.2
2018-Feb-17 22:30N 35°12' E 139°47'2 4.6
2018-Feb-17 22:01N 35°10' E 139°49'5 9.8
2018-Feb-17 21:31N 35°13' E 139°44'1 2.0
2018-Feb-17 21:01N 35°13' E 139°43'0 0.0
2018-Feb-17 11:11N 35°13' E 139°43'1 5.6
2018-Feb-17 11:00N 35°13' E 139°44'5 9.9
2018-Feb-17 10:31N 35°10' E 139°49'0 0.0
2018-Feb-17 10:00N 35°10' E 139°49'4 7.8
2018-Feb-17 09:30N 35°13' E 139°45'2 4.1
2018-Feb-17 09:00N 35°13' E 139°43'4 8.9
2018-Feb-17 08:30N 35°11' E 139°48'1 2.8
2018-Feb-17 08:00N 35°10' E 139°49'510.0
2018-Feb-17 07:30N 35°13' E 139°44'1 1.8
2018-Feb-17 06:59N 35°13' E 139°43'5 9.4
2018-Feb-17 06:30N 35°11' E 139°48'1 2.6
2018-Feb-17 06:00N 35°10' E 139°49'5 9.8
2018-Feb-17 05:30N 35°13' E 139°44'1 2.2
2018-Feb-17 05:00N 35°13' E 139°43'3 6.9
2018-Feb-17 04:30N 35°12' E 139°47'2 4.9
2018-Feb-17 04:01N 35°10' E 139°49'4 7.7
2018-Feb-17 03:30N 35°12' E 139°45'2 4.0
2018-Feb-17 03:00N 35°13' E 139°43'4 8.7
2018-Feb-17 02:31N 35°11' E 139°48'2 3.0
2018-Feb-17 01:59N 35°10' E 139°49'510.4
2018-Feb-17 01:30N 35°13' E 139°44'1 1.7
2018-Feb-17 01:00N 35°13' E 139°43'5 9.0
2018-Feb-17 00:30N 35°11' E 139°48'1 2.6
2018-Feb-17 00:00N 35°10' E 139°49'510.6
2018-Feb-16 23:30N 35°13' E 139°44'1 1.1
2018-Feb-16 23:00N 35°13' E 139°43'4 7.1
2018-Feb-16 22:30N 35°12' E 139°47'2 4.6
2018-Feb-16 22:00N 35°10' E 139°49'5 9.6
2018-Feb-16 21:30N 35°13' E 139°44'1 2.1
2018-Feb-16 21:00N 35°13' E 139°43'0 0.0
2018-Feb-16 11:14N 35°13' E 139°43'1 3.1
2018-Feb-16 11:00N 35°13' E 139°44'510.5
2018-Feb-16 10:30N 35°10' E 139°49'0 0.0
2018-Feb-16 10:00N 35°10' E 139°49'4 7.6
2018-Feb-16 09:30N 35°12' E 139°45'2 4.1
2018-Feb-16 09:00N 35°13' E 139°43'4 8.7
2018-Feb-16 08:30N 35°11' E 139°48'1 2.9
2018-Feb-16 08:00N 35°10' E 139°49'5 9.4
2018-Feb-16 07:31N 35°13' E 139°44'1 2.3
2018-Feb-16 07:00N 35°13' E 139°43'4 9.0
2018-Feb-16 06:30N 35°11' E 139°47'1 2.9
2018-Feb-16 06:00N 35°10' E 139°49'0 0.0
2018-Feb-16 05:30N 35°10' E 139°49'510.0
2018-Feb-16 05:00N 35°13' E 139°44'1 1.7
2018-Feb-16 04:28N 35°13' E 139°43'0 0.0
2018-Feb-16 04:00N 35°13' E 139°43'1 1.6
2018-Feb-16 03:30N 35°13' E 139°44'510.2
2018-Feb-16 02:59N 35°10' E 139°49'0 0.0
2018-Feb-16 02:29N 35°10' E 139°49'0 0.0
2018-Feb-16 02:00N 35°10' E 139°49'5 9.9
2018-Feb-16 01:30N 35°13' E 139°44'1 1.9
2018-Feb-16 01:00N 35°13' E 139°43'5 8.9
2018-Feb-16 00:30N 35°11' E 139°48'1 2.8
2018-Feb-16 00:00N 35°10' E 139°49'5 9.9
2018-Feb-15 23:30N 35°13' E 139°44'1 1.9
2018-Feb-15 23:00N 35°13' E 139°43'4 7.0
2018-Feb-15 22:30N 35°12' E 139°47'2 4.8
2018-Feb-15 22:00N 35°10' E 139°49'510.0
2018-Feb-15 21:30N 35°13' E 139°44'1 1.8
2018-Feb-15 21:00N 35°13' E 139°43'0 0.0
2018-Feb-15 11:13N 35°13' E 139°43'1 4.7
2018-Feb-15 11:00N 35°13' E 139°44'5 9.9
2018-Feb-15 10:30N 35°10' E 139°49'0 0.0
2018-Feb-15 10:00N 35°10' E 139°49'4 7.8
2018-Feb-15 09:30N 35°12' E 139°45'2 4.0
2018-Feb-15 09:00N 35°13' E 139°43'4 8.8
2018-Feb-15 08:30N 35°11' E 139°48'1 2.8
2018-Feb-15 08:00N 35°10' E 139°49'5 9.9
2018-Feb-15 07:30N 35°13' E 139°44'1 1.8
2018-Feb-15 07:00N 35°13' E 139°43'5 9.3
2018-Feb-15 06:30N 35°11' E 139°48'1 2.4
2018-Feb-15 06:00N 35°10' E 139°49'0 0.0
2018-Feb-15 05:30N 35°10' E 139°49'510.3
2018-Feb-15 05:00N 35°13' E 139°44'1 1.6
2018-Feb-15 04:30N 35°13' E 139°43'0 0.0
2018-Feb-15 04:00N 35°13' E 139°43'1 1.6
2018-Feb-15 03:30N 35°13' E 139°44'510.4
2018-Feb-15 03:00N 35°10' E 139°49'0 0.0
2018-Feb-15 02:30N 35°10' E 139°49'0 0.0
2018-Feb-15 02:00N 35°10' E 139°49'5 9.7
2018-Feb-15 01:30N 35°13' E 139°44'1 2.0
2018-Feb-15 01:00N 35°13' E 139°43'5 9.2
2018-Feb-15 00:30N 35°11' E 139°48'1 2.5
2018-Feb-15 00:00N 35°10' E 139°49'5 9.8
2018-Feb-14 23:30N 35°13' E 139°44'1 2.3
2018-Feb-14 23:00N 35°13' E 139°43'0 0.0
2018-Feb-14 11:11N 35°13' E 139°43'1 5.6
2018-Feb-14 11:00N 35°13' E 139°44'5 9.8
2018-Feb-14 10:30N 35°10' E 139°49'0 0.0
2018-Feb-14 10:00N 35°10' E 139°49'4 7.8
2018-Feb-14 09:30N 35°12' E 139°45'2 4.1
2018-Feb-14 09:00N 35°13' E 139°43'5 9.2
2018-Feb-14 08:30N 35°11' E 139°48'1 2.7
2018-Feb-14 08:00N 35°10' E 139°49'5 9.6
2018-Feb-14 07:30N 35°13' E 139°44'1 2.2
2018-Feb-14 07:00N 35°13' E 139°43'5 9.3
2018-Feb-14 06:30N 35°11' E 139°48'1 2.5
2018-Feb-14 06:00N 35°10' E 139°49'0 0.0
2018-Feb-14 05:30N 35°10' E 139°49'5 9.8
2018-Feb-14 05:00N 35°13' E 139°44'1 2.2
2018-Feb-14 04:29N 35°13' E 139°43'0 0.0
2018-Feb-14 04:00N 35°13' E 139°43'1 1.5
2018-Feb-14 03:30N 35°13' E 139°44'510.5
2018-Feb-14 03:00N 35°10' E 139°49'0 0.0
2018-Feb-14 02:30N 35°10' E 139°49'0 0.0
2018-Feb-14 02:00N 35°10' E 139°49'5 9.8
2018-Feb-14 01:30N 35°13' E 139°44'1 2.1
2018-Feb-14 01:00N 35°13' E 139°43'5 9.0
2018-Feb-14 00:30N 35°11' E 139°48'1 2.8
2018-Feb-14 00:00N 35°10' E 139°49'5 9.6
2018-Feb-13 23:30N 35°13' E 139°44'1 2.2
2018-Feb-13 23:00N 35°13' E 139°43'3 6.9
2018-Feb-13 22:30N 35°12' E 139°47'2 4.8
2018-Feb-13 22:00N 35°10' E 139°49'510.2
2018-Feb-13 21:30N 35°13' E 139°44'1 1.6
2018-Feb-13 21:00N 35°13' E 139°43'0 0.0
2018-Feb-13 11:09N 35°13' E 139°43'1 5.3
2018-Feb-13 11:00N 35°13' E 139°44'510.2
2018-Feb-13 10:30N 35°10' E 139°49'0 0.0
2018-Feb-13 10:00N 35°10' E 139°49'4 7.5
2018-Feb-13 09:30N 35°12' E 139°45'2 4.2
2018-Feb-13 09:00N 35°13' E 139°43'4 8.9
2018-Feb-13 08:30N 35°11' E 139°48'1 2.7
2018-Feb-13 08:00N 35°10' E 139°49'510.3
2018-Feb-13 07:30N 35°13' E 139°44'1 1.6
2018-Feb-13 07:00N 35°13' E 139°43'5 9.1
2018-Feb-13 06:30N 35°11' E 139°48'1 2.7
2018-Feb-13 06:00N 35°10' E 139°49'0 0.0
2018-Feb-13 05:30N 35°10' E 139°49'5 9.8
2018-Feb-13 05:00N 35°13' E 139°44'1 2.0
2018-Feb-13 04:29N 35°13' E 139°43'0 0.0
2018-Feb-13 04:00N 35°13' E 139°43'1 1.7
2018-Feb-13 03:30N 35°13' E 139°44'510.0
2018-Feb-13 03:00N 35°10' E 139°49'0 0.0
2018-Feb-13 02:30N 35°10' E 139°49'0 0.0
2018-Feb-13 02:00N 35°10' E 139°49'5 9.7
2018-Feb-13 01:29N 35°13' E 139°44'1 1.8
2018-Feb-13 01:00N 35°13' E 139°43'4 9.2
2018-Feb-13 00:30N 35°11' E 139°48'1 2.8
2018-Feb-13 00:00N 35°10' E 139°49'510.3
2018-Feb-12 23:29N 35°13' E 139°44'1 1.2
2018-Feb-12 23:00N 35°13' E 139°43'4 7.2
2018-Feb-12 22:30N 35°11' E 139°47'2 4.5
2018-Feb-12 22:00N 35°10' E 139°49'5 9.9
2018-Feb-12 21:30N 35°13' E 139°44'1 1.9
2018-Feb-12 21:00N 35°13' E 139°43'0 0.0
2018-Feb-12 11:17N 35°13' E 139°43'1 3.6
2018-Feb-12 11:00N 35°13' E 139°44'5 9.9
2018-Feb-12 10:30N 35°10' E 139°49'0 0.0
2018-Feb-12 10:01N 35°10' E 139°49'4 7.7
2018-Feb-12 09:30N 35°12' E 139°45'2 4.1
2018-Feb-12 09:01N 35°13' E 139°43'5 9.0
2018-Feb-12 08:30N 35°11' E 139°48'1 2.8
2018-Feb-12 08:00N 35°10' E 139°49'5 9.9
2018-Feb-12 07:31N 35°13' E 139°44'1 1.9
2018-Feb-12 07:00N 35°13' E 139°43'5 9.4
2018-Feb-12 06:30N 35°11' E 139°48'1 2.4
2018-Feb-12 06:00N 35°10' E 139°49'5 9.9
2018-Feb-12 05:31N 35°13' E 139°44'1 2.2
2018-Feb-12 05:00N 35°13' E 139°43'4 7.6
2018-Feb-12 04:31N 35°11' E 139°47'2 4.2
2018-Feb-12 04:00N 35°10' E 139°49'4 8.2
2018-Feb-12 03:31N 35°12' E 139°45'2 3.6
2018-Feb-12 03:00N 35°13' E 139°43'5 9.7
2018-Feb-12 02:31N 35°11' E 139°48'1 2.1
2018-Feb-12 02:00N 35°10' E 139°49'5 9.9
2018-Feb-12 01:30N 35°13' E 139°44'1 1.9
2018-Feb-12 01:00N 35°13' E 139°43'5 9.3
2018-Feb-12 00:30N 35°11' E 139°48'1 2.3
2018-Feb-12 00:00N 35°10' E 139°49'510.1
2018-Feb-11 23:30N 35°13' E 139°44'1 1.7
2018-Feb-11 23:00N 35°13' E 139°43'4 7.4
2018-Feb-11 22:30N 35°12' E 139°47'2 4.6
2018-Feb-11 22:01N 35°10' E 139°49'5 9.5
2018-Feb-11 21:31N 35°13' E 139°44'1 2.2
2018-Feb-11 21:00N 35°13' E 139°43'0 0.0
2018-Feb-11 11:20N 35°13' E 139°43'1 3.3
2018-Feb-11 11:00N 35°13' E 139°44'5 9.7
2018-Feb-11 10:30N 35°10' E 139°49'0 0.0
2018-Feb-11 10:00N 35°10' E 139°49'4 7.8
2018-Feb-11 09:30N 35°12' E 139°45'2 3.8
2018-Feb-11 09:00N 35°13' E 139°43'5 9.4
2018-Feb-11 08:30N 35°11' E 139°48'1 2.2
2018-Feb-11 08:00N 35°10' E 139°49'5 9.2
2018-Feb-11 07:30N 35°13' E 139°44'1 2.6
2018-Feb-11 07:00N 35°13' E 139°43'5 9.7
2018-Feb-11 06:30N 35°11' E 139°48'1 2.2
2018-Feb-11 06:00N 35°10' E 139°49'510.2
2018-Feb-11 05:30N 35°13' E 139°44'1 1.5
2018-Feb-11 05:01N 35°13' E 139°43'4 7.5
2018-Feb-11 04:30N 35°12' E 139°47'2 4.3
2018-Feb-11 04:00N 35°10' E 139°49'4 8.1
2018-Feb-11 03:31N 35°12' E 139°45'2 3.7
2018-Feb-11 03:00N 35°13' E 139°43'5 9.1
2018-Feb-11 02:30N 35°11' E 139°48'1 2.6
2018-Feb-11 02:01N 35°10' E 139°49'5 9.7
2018-Feb-11 01:30N 35°13' E 139°44'1 2.0
2018-Feb-11 01:00N 35°13' E 139°43'5 9.2
2018-Feb-11 00:30N 35°11' E 139°48'1 2.8
2018-Feb-11 00:00N 35°10' E 139°49'510.0
2018-Feb-10 23:30N 35°13' E 139°44'1 1.8
2018-Feb-10 23:00N 35°13' E 139°43'3 7.0
2018-Feb-10 22:31N 35°11' E 139°46'2 4.8
2018-Feb-10 22:00N 35°10' E 139°49'5 9.5
2018-Feb-10 21:30N 35°13' E 139°44'1 2.2
2018-Feb-10 21:00N 35°13' E 139°43'0 0.0
2018-Feb-10 11:09N 35°13' E 139°43'1 4.8
2018-Feb-10 11:00N 35°13' E 139°44'  

Dump ship's entire track history